Time;durP1;ratioP1;P1;durP2;ratioP2;P2;SDS_P1;SDS_P2;PMS_P1;PMS_P2;Temp;Humidity;BMP_temperature;BMP_pressure;BME280_temperature;BME280_humidity;BME280_pressure;Samples;Min_cycle;Max_cycle;Signal;HPM_P1;HPM_P2
2023/12/19 00:01:22;;;;;;;37.78;14.00;;;;;;;;;;5071906;28;20037;-92
2023/12/19 00:04:06;;;;;;;33.10;14.32;;;;;;;;;;5071387;28;20028;-93
2023/12/19 00:06:48;;;;;;;34.03;13.13;;;;;;;;;;5074724;28;20039;-92
2023/12/19 00:09:28;;;;;;;40.88;14.63;;;;;;;;;;5075292;28;20048;-92
2023/12/19 00:12:08;;;;;;;33.15;13.18;;;;;;;;;;5071803;28;20086;-91
2023/12/19 00:14:50;;;;;;;33.15;12.35;;;;;;;;;;5073617;28;20040;-92
2023/12/19 00:17:33;;;;;;;31.95;14.38;;;;;;;;;;5071843;28;20064;-93
2023/12/19 00:20:16;;;;;;;32.65;12.70;;;;;;;;;;5070385;28;20056;-92
2023/12/19 00:22:57;;;;;;;28.92;13.07;;;;;;;;;;5068789;28;20315;-93
2023/12/19 00:25:38;;;;;;;34.28;14.32;;;;;;;;;;5070371;28;20048;-91
2023/12/19 00:28:07;;;;;;;25.25;11.18;;;;;;;;;;5068867;28;20048;-91
2023/12/19 00:30:54;;;;;;;37.05;13.65;;;;;;;;;;5086855;28;20231;-92
2023/12/19 00:33:35;;;;;;;31.80;13.68;;;;;;;;;;5070860;28;20076;-91
2023/12/19 00:36:18;;;;;;;35.30;12.75;;;;;;;;;;5071663;28;20119;-92
2023/12/19 00:39:04;;;;;;;38.75;13.25;;;;;;;;;;5071787;28;20059;-93
2023/12/19 00:41:45;;;;;;;29.37;13.07;;;;;;;;;;5071001;28;20111;-92
2023/12/19 00:44:25;;;;;;;32.13;11.57;;;;;;;;;;5072111;28;20048;-92
2023/12/19 00:47:10;;;;;;;35.90;12.43;;;;;;;;;;5073578;28;20049;-92
2023/12/19 00:49:42;;;;;;;30.25;11.80;;;;;;;;;;5074627;28;20115;-93
2023/12/19 00:52:27;;;;;;;27.85;12.13;;;;;;;;;;5077568;28;20037;-92
2023/12/19 00:54:58;;;;;;;32.75;12.10;;;;;;;;;;5074747;28;20052;-92
2023/12/19 00:57:45;;;;;;;32.22;12.25;;;;;;;;;;5071115;28;20048;-92
2023/12/19 01:00:29;;;;;;;27.80;11.05;;;;;;;;;;5089715;28;20049;-91
2023/12/19 01:03:14;;;;;;;25.50;12.27;;;;;;;;;;5069790;28;20044;-91
2023/12/19 01:05:46;;;;;;;20.92;11.55;;;;;;;;;;5068417;28;20048;-90
2023/12/19 01:08:28;;;;;;;26.70;12.15;;;;;;;;;;5069340;28;20366;-90
2023/12/19 01:11:07;;;;;;;27.58;12.38;;;;;;;;;;5068361;28;20045;-90
2023/12/19 01:13:50;;;;;;;24.13;10.82;;;;;;;;;;5070831;28;20032;-92
2023/12/19 01:16:21;;;;;;;23.33;9.20;;;;;;;;;;5065551;28;20083;-91
2023/12/19 01:18:55;;;;;;;25.08;9.32;;;;;;;;;;5067384;28;20067;-92
2023/12/19 01:21:38;;;;;;;23.42;10.43;;;;;;;;;;5065775;28;20208;-92
2023/12/19 01:24:19;;;;;;;25.88;8.85;;;;;;;;;;5069101;28;20032;-90
2023/12/19 01:26:59;;;;;;;25.45;10.10;;;;;;;;;;5070527;28;20025;-90
2023/12/19 01:29:41;;;;;;;40.03;11.20;;;;;;;;;;5069181;28;20049;-91
2023/12/19 01:32:22;;;;;;;23.98;10.18;;;;;;;;;;5071902;28;20031;-90
2023/12/19 01:35:03;;;;;;;20.42;9.70;;;;;;;;;;5070102;28;20048;-91
2023/12/19 01:37:37;;;;;;;22.15;9.73;;;;;;;;;;5071768;28;20067;-91
2023/12/19 01:40:17;;;;;;;21.58;9.70;;;;;;;;;;5069111;28;20037;-91
2023/12/19 01:42:59;;;;;;;17.98;8.88;;;;;;;;;;5063362;28;20040;-90
2023/12/19 01:45:44;;;;;;;16.50;8.65;;;;;;;;;;5065573;28;20118;-92
2023/12/19 01:48:23;;;;;;;19.88;9.30;;;;;;;;;;5064334;28;20084;-92
2023/12/19 01:51:05;;;;;;;18.38;9.63;;;;;;;;;;5065065;28;20044;-92
2023/12/19 01:53:37;;;;;;;22.35;10.70;;;;;;;;;;5064193;28;20057;-91
2023/12/19 01:56:20;;;;;;;31.15;10.35;;;;;;;;;;5063285;28;20262;-92
2023/12/19 01:59:01;;;;;;;15.90;8.80;;;;;;;;;;5062799;28;20049;-91
2023/12/19 02:01:30;;;;;;;18.10;9.38;;;;;;;;;;5062979;28;20037;-91
2023/12/19 02:04:12;;;;;;;17.27;8.63;;;;;;;;;;5062705;28;20306;-91
2023/12/19 02:06:53;;;;;;;18.90;9.23;;;;;;;;;;5060580;28;20052;-90
2023/12/19 02:09:34;;;;;;;17.35;9.57;;;;;;;;;;5061905;28;20072;-91
2023/12/19 02:12:17;;;;;;;18.33;8.98;;;;;;;;;;5063258;28;20083;-91
2023/12/19 02:14:58;;;;;;;20.13;8.68;;;;;;;;;;5060118;28;20048;-91
2023/12/19 02:17:42;;;;;;;19.92;9.80;;;;;;;;;;5060201;28;20045;-91
2023/12/19 02:20:23;;;;;;;23.25;9.00;;;;;;;;;;5059577;28;20060;-91
2023/12/19 02:23:03;;;;;;;21.02;9.27;;;;;;;;;;5062512;28;20055;-91
2023/12/19 02:25:47;;;;;;;20.25;8.07;;;;;;;;;;5069275;28;20037;-91
2023/12/19 02:28:28;;;;;;;13.85;7.43;;;;;;;;;;5067018;28;20051;-91
2023/12/19 02:31:09;;;;;;;28.10;8.20;;;;;;;;;;5065344;28;20061;-91
2023/12/19 02:33:40;;;;;;;22.42;8.52;;;;;;;;;;5066080;28;20052;-91
2023/12/19 02:36:43;;;;;;;19.88;7.43;;;;;;;;;;5066319;28;20104;-92
2023/12/19 02:39:23;;;;;;;13.15;7.57;;;;;;;;;;5065733;28;20059;-91
2023/12/19 02:42:07;;;;;;;15.43;7.32;;;;;;;;;;5070119;28;20053;-92
2023/12/19 02:44:51;;;;;;;14.45;8.00;;;;;;;;;;5064542;28;20045;-92
2023/12/19 02:47:35;;;;;;;15.23;7.65;;;;;;;;;;5068741;28;20041;-92
2023/12/19 03:01:27;;;;;;;13.17;6.37;;;;;;;;;;5285351;22;20258;-92
2023/12/19 03:03:59;;;;;;;17.05;8.10;;;;;;;;;;5116952;27;20095;-92
2023/12/19 03:06:44;;;;;;;28.55;8.32;;;;;;;;;;5112409;28;20111;-92
2023/12/19 03:09:14;;;;;;;22.35;8.68;;;;;;;;;;5111384;28;20107;-92
2023/12/19 03:12:06;;;;;;;16.50;7.95;;;;;;;;;;5124613;28;20032;-90
2023/12/19 03:14:46;;;;;;;14.95;8.38;;;;;;;;;;5110362;28;20095;-91
2023/12/19 03:17:29;;;;;;;16.02;7.45;;;;;;;;;;5124864;28;20051;-91
2023/12/19 03:20:10;;;;;;;18.52;8.32;;;;;;;;;;5109089;28;20064;-91
2023/12/19 03:22:51;;;;;;;19.80;8.50;;;;;;;;;;5109126;28;20111;-91
2023/12/19 03:25:31;;;;;;;21.63;8.27;;;;;;;;;;5126973;28;20049;-91
2023/12/19 03:28:18;;;;;;;20.95;9.02;;;;;;;;;;5124390;28;20058;-92
2023/12/19 03:30:51;;;;;;;23.30;10.45;;;;;;;;;;5126166;28;20105;-92
2023/12/19 03:33:30;;;;;;;24.73;9.82;;;;;;;;;;5125203;28;20254;-92
2023/12/19 03:36:11;;;;;;;18.95;8.15;;;;;;;;;;5110538;28;20055;-92
2023/12/19 03:38:54;;;;;;;23.02;10.88;;;;;;;;;;5111654;28;20048;-91
2023/12/19 03:41:31;;;;;;;16.40;8.80;;;;;;;;;;5109788;28;20400;-91
2023/12/19 03:44:04;;;;;;;17.30;8.63;;;;;;;;;;5108082;28;20048;-92
2023/12/19 03:46:36;;;;;;;23.45;9.20;;;;;;;;;;5108210;28;20063;-91
2023/12/19 03:49:16;;;;;;;25.48;11.05;;;;;;;;;;5114144;27;20047;-92
2023/12/19 03:51:55;;;;;;;29.05;11.38;;;;;;;;;;5109321;28;20124;-91
2023/12/19 03:54:37;;;;;;;20.08;9.40;;;;;;;;;;5110114;28;20077;-91
2023/12/19 03:57:18;;;;;;;15.13;8.27;;;;;;;;;;5109070;28;20039;-91
2023/12/19 03:59:52;;;;;;;20.92;8.07;;;;;;;;;;5104667;28;20078;-90
2023/12/19 04:02:22;;;;;;;17.98;7.97;;;;;;;;;;5103800;28;20044;-91
2023/12/19 04:05:03;;;;;;;15.10;7.38;;;;;;;;;;5104561;28;20051;-91
2023/12/19 04:07:44;;;;;;;22.55;7.85;;;;;;;;;;5105657;28;20051;-91
2023/12/19 04:10:28;;;;;;;14.82;7.10;;;;;;;;;;5102658;28;20064;-91
2023/12/19 04:13:01;;;;;;;12.52;6.20;;;;;;;;;;5105349;28;20071;-91
2023/12/19 04:15:43;;;;;;;16.23;6.72;;;;;;;;;;5104737;28;20095;-91
2023/12/19 04:18:24;;;;;;;15.95;6.82;;;;;;;;;;5101280;28;20047;-92
2023/12/19 04:21:07;;;;;;;14.25;6.53;;;;;;;;;;5104699;28;20032;-93
2023/12/19 04:23:48;;;;;;;7.68;4.60;;;;;;;;;;5103713;28;20090;-90
2023/12/19 04:26:33;;;;;;;12.52;5.35;;;;;;;;;;5103866;28;20040;-91
2023/12/19 04:36:00;;;;;;;9.25;4.18;;;;;;;;;;5101629;28;20156;-92
2023/12/19 04:38:42;;;;;;;8.55;4.13;;;;;;;;;;5102354;28;20076;-92
2023/12/19 04:41:23;;;;;;;7.75;4.30;;;;;;;;;;5099114;28;20056;-92
2023/12/19 04:44:05;;;;;;;6.63;3.75;;;;;;;;;;5100213;28;20056;-93
2023/12/19 04:46:48;;;;;;;6.30;2.80;;;;;;;;;;5101878;28;20513;-91
2023/12/19 04:49:28;;;;;;;9.40;3.58;;;;;;;;;;5101122;28;20046;-91
2023/12/19 04:51:58;;;;;;;6.28;3.15;;;;;;;;;;5102543;28;20059;-91
2023/12/19 04:54:39;;;;;;;4.60;2.70;;;;;;;;;;5100702;28;20138;-91
2023/12/19 04:57:39;;;;;;;4.28;2.45;;;;;;;;;;5099525;28;20556;-91
2023/12/19 05:00:23;;;;;;;7.50;3.28;;;;;;;;;;5098621;28;20067;-91
2023/12/19 05:03:07;;;;;;;5.57;2.58;;;;;;;;;;5100238;28;20107;-91
2023/12/19 05:05:49;;;;;;;6.30;3.70;;;;;;;;;;5098303;28;20055;-91
2023/12/19 05:08:30;;;;;;;5.45;2.53;;;;;;;;;;5098557;28;20048;-90
2023/12/19 05:11:12;;;;;;;4.88;2.38;;;;;;;;;;5101638;28;20067;-91
2023/12/19 05:13:55;;;;;;;5.18;2.38;;;;;;;;;;5105410;28;20054;-91
2023/12/19 05:16:39;;;;;;;5.03;2.58;;;;;;;;;;5101787;28;20104;-91
2023/12/19 05:19:09;;;;;;;5.88;2.85;;;;;;;;;;5100428;28;20063;-92
2023/12/19 05:21:51;;;;;;;5.20;2.60;;;;;;;;;;5100527;28;20465;-91
2023/12/19 05:24:37;;;;;;;4.70;3.00;;;;;;;;;;5098035;28;20032;-91
2023/12/19 05:27:10;;;;;;;4.65;2.15;;;;;;;;;;5104447;28;20093;-91
2023/12/19 05:29:51;;;;;;;5.35;2.67;;;;;;;;;;5100447;28;20036;-91
2023/12/19 05:45:31;;;;;;;5.63;3.07;;;;;;;;;;6166735;22;21105;-90
2023/12/19 05:48:05;;;;;;;7.30;3.13;;;;;;;;;;5078631;28;20045;-91
2023/12/19 05:50:46;;;;;;;5.93;3.03;;;;;;;;;;5077757;28;20052;-91
2023/12/19 05:53:27;;;;;;;7.55;3.15;;;;;;;;;;5078468;28;20061;-91
2023/12/19 05:56:14;;;;;;;2.08;1.75;;;;;;;;;;5066245;28;20114;-90
2023/12/19 05:58:57;;;;;;;3.83;2.45;;;;;;;;;;5065328;28;20068;-91
2023/12/19 06:01:26;;;;;;;7.47;2.65;;;;;;;;;;5063618;28;20085;-89
2023/12/19 06:04:07;;;;;;;3.47;2.40;;;;;;;;;;5060804;28;20420;-90
2023/12/19 06:06:44;;;;;;;2.28;1.55;;;;;;;;;;5062020;28;20044;-91
2023/12/19 06:09:32;;;;;;;4.32;2.65;;;;;;;;;;5062876;28;20040;-91
2023/12/19 06:12:33;;;;;;;15.63;1.85;;;;;;;;;;5080257;28;20048;-90
2023/12/19 06:15:13;;;;;;;6.05;2.13;;;;;;;;;;5065889;28;20068;-90
2023/12/19 06:17:54;;;;;;;2.55;1.73;;;;;;;;;;5062453;28;20044;-90
2023/12/19 06:20:37;;;;;;;3.05;1.90;;;;;;;;;;5075700;28;20049;-90
2023/12/19 06:23:22;;;;;;;2.55;1.67;;;;;;;;;;5079639;28;20060;-90
2023/12/19 06:26:06;;;;;;;2.80;1.85;;;;;;;;;;5080344;28;20064;-90
2023/12/19 06:28:38;;;;;;;4.40;1.80;;;;;;;;;;5061419;28;20052;-90
2023/12/19 06:31:11;;;;;;;2.33;1.17;;;;;;;;;;5076215;28;20048;-91
2023/12/19 06:33:40;;;;;;;3.95;1.65;;;;;;;;;;5075322;28;20059;-91
2023/12/19 06:36:46;;;;;;;2.50;1.45;;;;;;;;;;5062916;28;20041;-91
2023/12/19 06:39:27;;;;;;;2.42;1.38;;;;;;;;;;5046435;28;20110;-90
2023/12/19 06:42:08;;;;;;;3.55;1.45;;;;;;;;;;5061066;28;20120;-91
2023/12/19 06:44:49;;;;;;;1.42;1.00;;;;;;;;;;5079605;28;20044;-91
2023/12/19 06:47:21;;;;;;;1.60;1.10;;;;;;;;;;5077731;28;20053;-91
2023/12/19 06:49:58;;;;;;;1.77;1.35;;;;;;;;;;5075326;28;20057;-91
2023/12/19 06:52:38;;;;;;;2.30;1.02;;;;;;;;;;5075251;28;20194;-92
2023/12/19 06:55:14;;;;;;;1.70;1.27;;;;;;;;;;5077221;28;20139;-91
2023/12/19 06:57:55;;;;;;;2.38;1.23;;;;;;;;;;5077152;28;20060;-91
2023/12/19 07:00:35;;;;;;;3.20;1.15;;;;;;;;;;5076956;28;20049;-91
2023/12/19 07:03:18;;;;;;;2.55;1.50;;;;;;;;;;5074580;28;20192;-90
2023/12/19 07:05:59;;;;;;;1.25;1.10;;;;;;;;;;5061463;28;20048;-90
2023/12/19 07:08:42;;;;;;;2.38;1.45;;;;;;;;;;5061769;28;20418;-90
2023/12/19 07:11:24;;;;;;;2.05;1.17;;;;;;;;;;5062724;28;20044;-88
2023/12/19 07:14:05;;;;;;;1.67;1.20;;;;;;;;;;5066007;28;20529;-89
2023/12/19 07:16:33;;;;;;;2.78;1.00;;;;;;;;;;5081749;28;20049;-89
2023/12/19 07:19:14;;;;;;;2.63;1.42;;;;;;;;;;5078968;28;20430;-89
2023/12/19 07:21:45;;;;;;;2.47;1.20;;;;;;;;;;5062160;28;20564;-89
2023/12/19 07:24:32;;;;;;;1.23;0.82;;;;;;;;;;5078893;28;20044;-89
2023/12/19 07:27:12;;;;;;;1.95;0.93;;;;;;;;;;5081594;28;20126;-89
2023/12/19 07:29:56;;;;;;;1.40;1.23;;;;;;;;;;5080908;28;20328;-89
2023/12/19 07:32:32;;;;;;;2.78;1.17;;;;;;;;;;5080969;28;20466;-90
2023/12/19 07:35:14;;;;;;;;;;;;;;;;;;5065526;28;20044;-89
2023/12/19 07:37:54;;;;;;;1.80;1.00;;;;;;;;;;5076547;28;20126;-90
2023/12/19 07:40:28;;;;;;;1.65;0.90;;;;;;;;;;5077169;28;20109;-90
2023/12/19 07:43:06;;;;;;;2.30;1.20;;;;;;;;;;5063752;28;20054;-89
2023/12/19 07:45:36;;;;;;;4.05;1.48;;;;;;;;;;5061777;28;20044;-89
2023/12/19 07:48:17;;;;;;;2.70;0.82;;;;;;;;;;5065122;28;20151;-90
2023/12/19 07:50:46;;;;;;;1.85;1.25;;;;;;;;;;5077117;28;20268;-90
2023/12/19 07:53:25;;;;;;;1.58;0.93;;;;;;;;;;5061243;28;20052;-90
2023/12/19 07:56:05;;;;;;;1.17;1.02;;;;;;;;;;5078222;28;20063;-91
2023/12/19 07:58:47;;;;;;;1.90;1.02;;;;;;;;;;5065506;28;20043;-90
2023/12/19 08:01:28;;;;;;;3.75;1.13;;;;;;;;;;5084535;28;20053;-90
2023/12/19 08:04:11;;;;;;;3.33;1.58;;;;;;;;;;5079437;28;20044;-89
2023/12/19 08:06:41;;;;;;;2.97;1.40;;;;;;;;;;5080280;28;20049;-89
2023/12/19 08:09:21;;;;;;;1.88;1.05;;;;;;;;;;5062190;28;20211;-90
2023/12/19 08:11:58;;;;;;;3.20;1.42;;;;;;;;;;5076814;28;20059;-90
2023/12/19 08:14:42;;;;;;;2.65;1.15;;;;;;;;;;5062422;28;20040;-90
2023/12/19 08:17:23;;;;;;;2.03;0.85;;;;;;;;;;5065035;28;20419;-90
2023/12/19 08:20:15;;;;;;;1.00;0.90;;;;;;;;;;5077092;28;20059;-90
2023/12/19 08:22:57;;;;;;;2.55;1.92;;;;;;;;;;5060967;28;20040;-90
2023/12/19 08:25:40;;;;;;;2.63;1.25;;;;;;;;;;5061962;28;20128;-90
2023/12/19 08:28:12;;;;;;;1.95;1.20;;;;;;;;;;5060171;28;20056;-90
2023/12/19 08:30:42;;;;;;;1.75;1.10;;;;;;;;;;5061192;28;20292;-92
2023/12/19 08:33:44;;;;;;;2.42;1.13;;;;;;;;;;5077547;28;20437;-91
2023/12/19 08:36:25;;;;;;;3.60;1.77;;;;;;;;;;5061077;28;20070;-90
2023/12/19 08:39:07;;;;;;;2.35;1.30;;;;;;;;;;5060603;28;20049;-90
2023/12/19 08:41:50;;;;;;;2.97;1.73;;;;;;;;;;5060574;28;20252;-88
2023/12/19 08:44:34;;;;;;;2.72;1.38;;;;;;;;;;5062541;28;20087;-88
2023/12/19 08:47:06;;;;;;;1.95;1.15;;;;;;;;;;5078806;28;20114;-89
2023/12/19 08:49:56;;;;;;;2.77;1.40;;;;;;;;;;5078091;28;20172;-89
2023/12/19 08:52:38;;;;;;;4.15;1.58;;;;;;;;;;5064746;28;20066;-89
2023/12/19 08:55:20;;;;;;;1.80;1.05;;;;;;;;;;5063324;28;20052;-90
2023/12/19 08:57:59;;;;;;;2.03;1.50;;;;;;;;;;5077816;28;20052;-91
2023/12/19 17:02:22;;;;;;;10.18;4.97;;;;;;;;;;5044720;28;20064;-90
2023/12/19 17:05:04;;;;;;;12.98;5.40;;;;;;;;;;5033739;28;20037;-91
2023/12/19 17:07:38;;;;;;;9.07;5.40;;;;;;;;;;5063510;28;20108;-91
2023/12/19 17:10:22;;;;;;;10.20;5.38;;;;;;;;;;5047662;28;20033;-91
2023/12/19 17:13:06;;;;;;;10.02;6.00;;;;;;;;;;5574549;22;20698;-90
2023/12/19 17:18:39;;;;;;;12.07;6.05;;;;;;;;;;5087816;28;20124;-92
2023/12/19 17:21:26;;;;;;;8.80;5.28;;;;;;;;;;5072897;28;20150;-91
2023/12/19 17:24:12;;;;;;;10.05;6.07;;;;;;;;;;5071672;28;20047;-92
2023/12/19 17:26:59;;;;;;;10.50;5.53;;;;;;;;;;5067040;28;20051;-92
2023/12/19 17:29:58;;;;;;;12.32;5.93;;;;;;;;;;5065152;28;20388;-92
2023/12/19 17:32:32;;;;;;;11.20;5.60;;;;;;;;;;5063361;28;20537;-90
2023/12/19 17:35:01;;;;;;;12.38;5.65;;;;;;;;;;5065063;28;20049;-91
2023/12/19 17:40:44;;;;;;;9.13;5.78;;;;;;;;;;5079250;28;20033;-91
2023/12/19 17:43:33;;;;;;;9.75;5.43;;;;;;;;;;5066170;28;20130;-92
2023/12/19 17:46:22;;;;;;;12.65;6.93;;;;;;;;;;5062888;28;20320;-92
2023/12/19 17:48:50;;;;;;;9.93;5.97;;;;;;;;;;5063730;28;20054;-92
2023/12/19 17:51:22;;;;;;;12.70;6.70;;;;;;;;;;5069592;28;20059;-91
2023/12/19 17:54:05;;;;;;;11.80;6.65;;;;;;;;;;5069755;28;20071;-91
2023/12/19 17:56:53;;;;;;;9.75;5.45;;;;;;;;;;5080529;28;20058;-91
2023/12/19 17:59:35;;;;;;;11.18;5.63;;;;;;;;;;5063944;28;20152;-92
2023/12/19 18:02:29;;;;;;;10.43;5.22;;;;;;;;;;5062533;28;20040;-92
2023/12/19 18:05:56;;;;;;;10.73;5.18;;;;;;;;;;5075579;28;20453;-92
2023/12/19 18:12:01;;;;;;;0.00;0.00;;;;;;;;;;5078811;28;20056;-90
2023/12/19 18:14:34;;;;;;;0.00;0.00;;;;;;;;;;5062826;28;20388;-91
2023/12/19 18:17:19;;;;;;;7.43;4.18;;;;;;;;;;5148853;22;20060;-91
2023/12/19 18:20:05;;;;;;;10.05;5.60;;;;;;;;;;5062872;28;20048;-91
2023/12/19 18:22:55;;;;;;;10.85;5.05;;;;;;;;;;5059066;28;20160;-92
2023/12/19 18:25:40;;;;;;;9.43;4.88;;;;;;;;;;5079183;28;20044;-92
2023/12/19 18:28:20;;;;;;;7.65;4.38;;;;;;;;;;5063292;28;20045;-92
2023/12/19 18:31:05;;;;;;;4.75;2.92;;;;;;;;;;5079278;28;20120;-92
2023/12/19 18:33:53;;;;;;;9.10;6.10;;;;;;;;;;5062442;28;20056;-91
2023/12/19 18:36:44;;;;;;;12.52;5.45;;;;;;;;;;5059344;28;20052;-92
2023/12/19 18:39:29;;;;;;;0.98;0.80;;;;;;;;;;5061648;28;20279;-92
2023/12/19 18:42:19;;;;;;;0.10;0.10;;;;;;;;;;5077577;28;20055;-92
2023/12/19 18:45:08;;;;;;;0.00;0.00;;;;;;;;;;5063606;28;20048;-93
2023/12/19 18:48:06;;;;;;;;;;;;;;;;;;;;;
2023/12/19 18:51:23;;;;;;;0.70;0.35;;;;;;;;;;5083611;28;20435;-92
2023/12/19 18:54:16;;;;;;;6.35;4.07;;;;;;;;;;5082162;28;20037;-92
2023/12/19 18:57:03;;;;;;;11.32;6.65;;;;;;;;;;5066401;28;20063;-91
2023/12/19 19:00:09;;;;;;;11.15;5.85;;;;;;;;;;5066886;28;20056;-92
2023/12/19 19:03:28;;;;;;;;;;;;;;;;;;;;;
2023/12/19 19:06:27;;;;;;;12.05;5.10;;;;;;;;;;5086345;28;20056;-92
2023/12/19 19:09:32;;;;;;;12.35;6.07;;;;;;;;;;5072944;28;20055;-91
2023/12/19 19:12:23;;;;;;;8.75;4.75;;;;;;;;;;5070882;28;20113;-92
2023/12/19 19:15:18;;;;;;;14.32;6.13;;;;;;;;;;5087420;28;20056;-91
2023/12/19 19:18:24;;;;;;;10.02;5.43;;;;;;;;;;5073329;28;20052;-92
2023/12/19 19:21:12;;;;;;;11.35;5.22;;;;;;;;;;5089526;28;20091;-91
2023/12/19 19:24:05;;;;;;;11.15;6.13;;;;;;;;;;5093014;28;20060;-91
2023/12/19 19:30:03;;;;;;;0.00;0.00;;;;;;;;;;5085878;28;20039;-92
2023/12/19 19:32:58;;;;;;;;;;;;;;;;;;;;;
2023/12/19 19:38:11;;;;;;;7.47;3.30;;;;;;;;;;5066417;28;20255;-92
2023/12/19 19:40:54;;;;;;;6.20;3.58;;;;;;;;;;5052952;28;20052;-92
2023/12/19 19:43:44;;;;;;;9.70;4.43;;;;;;;;;;5051615;28;20048;-92
2023/12/19 19:46:32;;;;;;;9.35;5.00;;;;;;;;;;5052679;28;20113;-92
2023/12/19 19:49:04;;;;;;;14.07;4.72;;;;;;;;;;5048790;28;20052;-92
2023/12/19 19:51:34;;;;;;;10.77;4.13;;;;;;;;;;5047619;28;20057;-92
2023/12/19 19:54:24;;;;;;;9.20;4.45;;;;;;;;;;5044033;28;20049;-92
2023/12/19 19:57:05;;;;;;;9.68;4.03;;;;;;;;;;5046190;28;20516;-92
2023/12/19 19:59:46;;;;;;;6.53;4.13;;;;;;;;;;5047871;28;20088;-92
2023/12/19 20:02:36;;;;;;;10.05;5.10;;;;;;;;;;5047517;28;20045;-91
2023/12/19 20:06:02;;;;;;;7.80;3.72;;;;;;;;;;5161285;27;24524;-91
2023/12/19 20:08:55;;;;;;;4.10;2.70;;;;;;;;;;5146003;27;20138;-91
2023/12/19 20:11:37;;;;;;;4.68;2.80;;;;;;;;;;5145522;27;20360;-91
2023/12/19 20:14:18;;;;;;;5.47;2.58;;;;;;;;;;5146453;27;20232;-92
2023/12/19 20:17:02;;;;;;;4.15;2.00;;;;;;;;;;5147380;27;20090;-91
2023/12/19 20:19:45;;;;;;;2.88;1.77;;;;;;;;;;5149584;27;20038;-91
2023/12/19 20:22:27;;;;;;;5.07;1.50;;;;;;;;;;5143820;27;20051;-91
2023/12/19 20:24:59;;;;;;;4.63;1.58;;;;;;;;;;5143640;27;20307;-91
2023/12/19 20:27:47;;;;;;;11.88;1.42;;;;;;;;;;5146645;27;20050;-92
2023/12/19 20:30:28;;;;;;;2.63;1.60;;;;;;;;;;5149576;27;20125;-92
2023/12/19 20:33:09;;;;;;;8.07;1.05;;;;;;;;;;5148998;27;20033;-91
2023/12/19 20:35:51;;;;;;;6.40;1.27;;;;;;;;;;5147949;27;20055;-90
2023/12/19 20:38:44;;;;;;;10.43;1.60;;;;;;;;;;5145423;27;20046;-91
2023/12/19 20:41:24;;;;;;;3.83;1.63;;;;;;;;;;5145141;27;20240;-91
2023/12/19 20:44:10;;;;;;;2.70;0.90;;;;;;;;;;5149274;27;20201;-91
2023/12/19 20:46:55;;;;;;;6.95;1.30;;;;;;;;;;5148124;27;20042;-91
2023/12/19 20:49:39;;;;;;;2.97;0.95;;;;;;;;;;5148778;27;20111;-91
2023/12/19 20:52:20;;;;;;;2.22;0.85;;;;;;;;;;5145617;27;20056;-91
2023/12/19 20:55:06;;;;;;;11.20;1.98;;;;;;;;;;5147132;27;20063;-91
2023/12/19 20:57:47;;;;;;;10.82;1.08;;;;;;;;;;5144770;27;20064;-91
2023/12/19 21:00:31;;;;;;;1.13;0.68;;;;;;;;;;5147123;27;20042;-91
2023/12/19 21:03:14;;;;;;;10.10;1.00;;;;;;;;;;5146088;27;20038;-92
2023/12/19 21:06:03;;;;;;;0.77;0.55;;;;;;;;;;5164271;27;20043;-92
2023/12/19 21:08:46;;;;;;;0.30;0.30;;;;;;;;;;5145085;27;20134;-91
2023/12/19 21:11:27;;;;;;;13.55;1.08;;;;;;;;;;5143880;27;20034;-91
2023/12/19 21:14:08;;;;;;;0.00;0.00;;;;;;;;;;5145215;27;20082;-90
2023/12/19 21:16:50;;;;;;;0.00;0.00;;;;;;;;;;5131413;27;20085;-91
2023/12/19 21:19:34;;;;;;;0.10;0.10;;;;;;;;;;5131515;27;20237;-91
2023/12/19 21:22:17;;;;;;;0.00;0.00;;;;;;;;;;5146512;27;20220;-91
2023/12/19 21:24:58;;;;;;;0.00;0.00;;;;;;;;;;5130068;27;20335;-90
2023/12/19 21:27:28;;;;;;;0.00;0.00;;;;;;;;;;5131199;27;20067;-91
2023/12/19 21:30:10;;;;;;;0.00;0.00;;;;;;;;;;5128313;27;20145;-91
2023/12/19 21:32:51;;;;;;;0.00;0.00;;;;;;;;;;5130150;27;20043;-91
2023/12/19 21:35:20;;;;;;;0.00;0.00;;;;;;;;;;5127484;27;20051;-90
2023/12/19 21:38:03;;;;;;;0.00;0.00;;;;;;;;;;5128504;27;20043;-91
2023/12/19 21:40:35;;;;;;;0.00;0.00;;;;;;;;;;5127533;27;20051;-91
2023/12/19 21:43:06;;;;;;;0.00;0.00;;;;;;;;;;5129036;27;20112;-90
2023/12/19 21:45:48;;;;;;;0.00;0.00;;;;;;;;;;5127348;27;20930;-91
2023/12/19 21:48:19;;;;;;;0.00;0.00;;;;;;;;;;5129551;27;20059;-90
2023/12/19 21:51:04;;;;;;;0.00;0.00;;;;;;;;;;5130347;27;20043;-91
2023/12/19 21:53:46;;;;;;;0.00;0.00;;;;;;;;;;5128634;27;20123;-91
2023/12/19 21:56:15;;;;;;;0.00;0.00;;;;;;;;;;5129602;27;20100;-91
2023/12/19 21:58:53;;;;;;;0.00;0.00;;;;;;;;;;5134592;27;20047;-90
2023/12/19 22:01:34;;;;;;;0.00;0.00;;;;;;;;;;5134189;27;20096;-91
2023/12/19 22:04:10;;;;;;;0.00;0.00;;;;;;;;;;5133804;27;20066;-91
2023/12/19 22:06:55;;;;;;;0.00;0.00;;;;;;;;;;5130652;27;20265;-91
2023/12/19 22:09:36;;;;;;;0.00;0.00;;;;;;;;;;5167273;22;20059;-91
2023/12/19 22:12:20;;;;;;;0.00;0.00;;;;;;;;;;5092887;28;20148;-90
2023/12/19 22:15:06;;;;;;;0.00;0.00;;;;;;;;;;5105447;27;20054;-90
2023/12/19 22:17:49;;;;;;;0.00;0.00;;;;;;;;;;5105451;28;20043;-91
2023/12/19 22:27:23;;;;;;;0.05;0.05;;;;;;;;;;5103668;28;20027;-91
2023/12/19 22:29:54;;;;;;;0.00;0.00;;;;;;;;;;5086468;28;20063;-91
2023/12/19 22:32:24;;;;;;;0.00;0.00;;;;;;;;;;5086113;28;20059;-90
2023/12/19 22:35:06;;;;;;;0.00;0.00;;;;;;;;;;5088082;28;20047;-91
2023/12/19 22:37:38;;;;;;;0.05;0.05;;;;;;;;;;5086886;28;20044;-92
2023/12/19 22:40:08;;;;;;;0.00;0.00;;;;;;;;;;5086649;28;20052;-92
2023/12/19 22:42:48;;;;;;;0.00;0.00;;;;;;;;;;5089163;28;20052;-92
2023/12/19 22:45:29;;;;;;;0.00;0.00;;;;;;;;;;5103605;28;20063;-92
2023/12/19 22:48:09;;;;;;;0.00;0.00;;;;;;;;;;5088659;28;20300;-92
2023/12/19 22:50:48;;;;;;;0.00;0.00;;;;;;;;;;5090471;28;20044;-92
2023/12/19 22:53:32;;;;;;;0.00;0.00;;;;;;;;;;5086291;28;20056;-90
2023/12/19 22:56:29;;;;;;;0.00;0.00;;;;;;;;;;5088658;28;20048;-89
2023/12/19 22:59:08;;;;;;;0.00;0.00;;;;;;;;;;5087136;28;20120;-91
2023/12/19 23:01:52;;;;;;;0.00;0.00;;;;;;;;;;5087684;28;20064;-91
2023/12/19 23:04:33;;;;;;;0.10;0.10;;;;;;;;;;5087774;28;20071;-92
2023/12/19 23:07:16;;;;;;;0.10;0.10;;;;;;;;;;5087389;28;20040;-91
2023/12/19 23:10:00;;;;;;;0.00;0.00;;;;;;;;;;5081578;28;20121;-91
2023/12/19 23:12:33;;;;;;;0.10;0.10;;;;;;;;;;5081531;28;20439;-91
2023/12/19 23:15:06;;;;;;;0.00;0.00;;;;;;;;;;5081349;28;20475;-91
2023/12/19 23:17:47;;;;;;;0.30;0.30;;;;;;;;;;5081599;28;20071;-91
2023/12/19 23:20:29;;;;;;;0.00;0.00;;;;;;;;;;5080294;28;20389;-90
2023/12/19 23:23:11;;;;;;;0.00;0.00;;;;;;;;;;5082368;28;20044;-92
2023/12/19 23:31:05;;;;;;;0.00;0.00;;;;;;;;;;5808840;22;20039;-91
2023/12/19 23:33:47;;;;;;;0.10;0.10;;;;;;;;;;5127132;27;20035;-91
2023/12/19 23:36:28;;;;;;;0.00;0.00;;;;;;;;;;5122264;28;20057;-92
2023/12/19 23:38:58;;;;;;;0.08;0.08;;;;;;;;;;5123343;27;20048;-92
2023/12/19 23:41:28;;;;;;;0.10;0.10;;;;;;;;;;5126809;28;20048;-92
2023/12/19 23:44:00;;;;;;;0.00;0.00;;;;;;;;;;5125269;28;20051;-92
2023/12/19 23:46:28;;;;;;;0.00;0.00;;;;;;;;;;5124971;27;20051;-93
2023/12/19 23:48:58;;;;;;;0.00;0.00;;;;;;;;;;5126830;27;20031;-93
2023/12/19 23:51:29;;;;;;;0.00;0.00;;;;;;;;;;5124270;28;20048;-93
2023/12/19 23:57:18;;;;;;;0.00;0.00;;;;;;;;;;5123216;28;20219;-93
2023/12/19 23:59:51;;;;;;;0.00;0.00;;;;;;;;;;5123511;28;20058;-93
